Nisshin Maru — JJCJ — position and weather

sailwx.info

Track history (hours):
 
Tides and Currents Weather Stations Pressure Air Temp Water Temp Dewpoint Dewpoint Depression Visibility Wind Speed Wind Dir Waves Ship Positions

Nisshin Maru

Last reported at 2016-Aug-04 11:18 UTC. Time now 2016-Dec-02 18:04 UTC.
Position N 34°37' E 134°57'.
Warning: this ship's position is months out of date.

Length 129 m; draft 6.7 m.

Type: Fishing. MMSI: 431683000.

Date/timePositionNaut miles runAvg speedWind from/ knotsBaromVisibWave heightAir tempDewpointWater temp
2016-Aug-04 11:18N 34°37' E 134°57'810.5
2016-Aug-04 10:34N 34°33' E 135°05'1010.3
2016-Aug-04 09:33N 34°23' E 135°02'1111.0
2016-Aug-04 08:34N 34°13' E 134°59'1010.2
2016-Aug-04 07:34N 34°02' E 134°59'245 8.4
2016-Aug-03 02:19N 34°33' E 139°54'1112.8
2016-Aug-03 01:27N 34°39' E 140°05'1213.1
2016-Aug-03 00:31N 34°46' E 140°17'1513.4
2016-Aug-02 23:25N 34°55' E 140°31'1213.2
2016-Aug-02 22:28N 35°04' E 140°42'1414.1
2016-Aug-02 21:27N 35°16' E 140°52'1913.9
2016-Aug-02 20:06N 35°32' E 141°02'814.0
2016-Aug-02 19:33N 35°39' E 141°07'3013.6
2016-Aug-02 17:21N 36°05' E 141°25'1012.6
2016-Aug-02 16:33N 36°15' E 141°27'  
Track history (hours):
 
Tides and Currents Weather Stations Pressure Air Temp Water Temp Dewpoint Dewpoint Depression Visibility Wind Speed Wind Dir Waves Ship Positions

Nisshin Maru

Last reported at 2016-Aug-04 11:18 UTC. Time now 2016-Dec-02 18:04 UTC.
Position N 34°37' E 134°57'.
Warning: this ship's position is months out of date.

Length 129 m; draft 6.7 m.

Type: Fishing. MMSI: 431683000.

Date/timePositionNaut miles runAvg speedWind from/ knotsBaromVisibWave heightAir tempDewpointWater temp
2016-Aug-04 11:18N 34°37' E 134°57'810.5
2016-Aug-04 10:34N 34°33' E 135°05'1010.3
2016-Aug-04 09:33N 34°23' E 135°02'1111.0
2016-Aug-04 08:34N 34°13' E 134°59'1010.2
2016-Aug-04 07:34N 34°02' E 134°59'245 8.4
2016-Aug-03 02:19N 34°33' E 139°54'1112.8
2016-Aug-03 01:27N 34°39' E 140°05'1213.1
2016-Aug-03 00:31N 34°46' E 140°17'1513.4
2016-Aug-02 23:25N 34°55' E 140°31'1213.2
2016-Aug-02 22:28N 35°04' E 140°42'1414.1
2016-Aug-02 21:27N 35°16' E 140°52'1913.9
2016-Aug-02 20:06N 35°32' E 141°02'814.0
2016-Aug-02 19:33N 35°39' E 141°07'3013.6
2016-Aug-02 17:21N 36°05' E 141°25'1012.6
2016-Aug-02 16:33N 36°15' E 141°27'  

Dump ship's entire track history